createdAt,value
2022-12-15T00:01:56.745Z,94.85
2022-12-15T00:03:58.936Z,94.94
2022-12-15T00:06:00.433Z,95.08
2022-12-15T00:08:02.204Z,95.2
2022-12-15T00:12:05.968Z,95.43
2022-12-15T00:14:07.746Z,95.55
2022-12-15T00:16:09.123Z,95.59
2022-12-15T00:18:10.539Z,95.61
2022-12-15T00:20:11.831Z,95.47
2022-12-15T00:22:13.564Z,95.23
2022-12-15T00:24:15.563Z,95.39
2022-12-15T00:26:17.463Z,95.47
2022-12-15T00:28:18.874Z,95.46
2022-12-15T00:30:20.544Z,95.49
2022-12-15T00:32:22.151Z,95.51
2022-12-15T00:34:23.553Z,95.52
2022-12-15T00:36:25.626Z,95.46
2022-12-15T00:38:27.493Z,95.36
2022-12-15T00:40:29.603Z,95.33
2022-12-15T00:42:31.347Z,95.33
2022-12-15T00:44:32.744Z,95.35
2022-12-15T00:46:34.010Z,95.35
2022-12-15T00:48:35.438Z,95.41
2022-12-15T00:50:36.853Z,95.49
2022-12-15T00:54:40.447Z,95.51
2022-12-15T00:56:42.099Z,95.5
2022-12-15T00:58:44.063Z,94.9
2022-12-15T01:00:46.077Z,94.8
2022-12-15T01:02:47.794Z,94.72
2022-12-15T01:04:49.407Z,94.87
2022-12-15T01:06:50.557Z,95.15
2022-12-15T01:08:51.858Z,95.44
2022-12-15T01:10:53.167Z,95.5
2022-12-15T01:12:55.194Z,95.56
2022-12-15T01:14:56.899Z,95.6
2022-12-15T01:16:58.279Z,95.68
2022-12-15T01:18:59.757Z,95.3
2022-12-15T01:21:01.646Z,94.66
2022-12-15T01:23:03.672Z,94.88
2022-12-15T01:25:04.854Z,95.1
2022-12-15T01:27:06.196Z,95.25
2022-12-15T01:29:07.867Z,95.27
2022-12-15T01:31:09.210Z,95.29
2022-12-15T01:33:10.673Z,95.3
2022-12-15T01:37:14.204Z,95.46
2022-12-15T01:39:16.373Z,95.46
2022-12-15T01:41:17.768Z,95.5
2022-12-15T01:43:19.702Z,95.52
2022-12-15T01:45:20.964Z,95.57
2022-12-15T01:47:22.739Z,95.53
2022-12-15T01:49:23.969Z,95.29
2022-12-15T01:51:25.247Z,95.29
2022-12-15T01:53:27.274Z,95.38
2022-12-15T01:55:28.908Z,95.42
2022-12-15T01:57:30.962Z,95.43
2022-12-15T01:59:33.015Z,95.58
2022-12-15T02:01:34.673Z,95.59
2022-12-15T02:03:36.616Z,95.6
2022-12-15T02:05:37.935Z,95.62
2022-12-15T02:07:39.250Z,95.65
2022-12-15T02:09:41.344Z,95.67
2022-12-15T02:11:43.176Z,95.61
2022-12-15T02:13:44.789Z,95.67
2022-12-15T02:15:46.135Z,95.66
2022-12-15T02:19:48.570Z,95.68
2022-12-15T02:21:50.281Z,95.67
2022-12-15T02:23:51.637Z,95.67
2022-12-15T02:25:52.799Z,95.61
2022-12-15T02:27:53.964Z,95.58
2022-12-15T02:29:55.171Z,95.48
2022-12-15T02:31:57.263Z,95.43
2022-12-15T02:33:58.314Z,95.42
2022-12-15T02:36:00.201Z,95.39
2022-12-15T02:38:01.632Z,95.42
2022-12-15T02:40:03.219Z,95.41
2022-12-15T02:42:04.591Z,95.46
2022-12-15T02:44:06.235Z,95.49
2022-12-15T02:46:08.037Z,95.51
2022-12-15T02:48:09.677Z,95.48
2022-12-15T02:52:13.094Z,95.5
2022-12-15T02:54:14.340Z,95.5
2022-12-15T02:56:15.508Z,95.49
2022-12-15T02:58:17.262Z,95.54
2022-12-15T03:02:20.634Z,95.48
2022-12-15T03:04:22.469Z,95.39
2022-12-15T03:06:24.579Z,95.43
2022-12-15T03:08:26.150Z,95.63
2022-12-15T03:10:28.017Z,95.42
2022-12-15T03:12:29.224Z,95.3
2022-12-15T03:14:30.734Z,95.29
2022-12-15T03:16:32.144Z,95.26
2022-12-15T03:18:33.590Z,95.25
2022-12-15T03:20:34.885Z,95.33
2022-12-15T03:22:36.517Z,95.39
2022-12-15T03:24:38.101Z,95.55
2022-12-15T03:26:40.040Z,95.7
2022-12-15T03:28:41.678Z,95.74
2022-12-15T03:30:42.937Z,95.74
2022-12-15T03:32:45.023Z,95.72
2022-12-15T03:34:47.044Z,95.65
2022-12-15T03:36:48.349Z,95.6
2022-12-15T03:38:49.571Z,95.64
2022-12-15T03:40:51.600Z,95.66
2022-12-15T03:43:36.824Z,95.68
2022-12-15T03:45:38.694Z,95.68
2022-12-15T03:47:40.315Z,95.7
2022-12-15T03:49:41.636Z,95.73
2022-12-15T03:51:43.330Z,95.75
2022-12-15T03:55:46.081Z,95.81
2022-12-15T03:57:47.423Z,95.81
2022-12-15T03:59:49.155Z,95.81
2022-12-15T04:01:50.886Z,95.77
2022-12-15T04:03:55.554Z,95.79
2022-12-15T04:05:53.756Z,95.77
2022-12-15T04:07:55.153Z,95.67
2022-12-15T04:09:56.570Z,95.63
2022-12-15T04:11:58.630Z,95.54
2022-12-15T04:13:59.837Z,95.51
2022-12-15T04:16:01.066Z,95.52
2022-12-15T04:18:03.129Z,95.58
2022-12-15T04:20:04.901Z,95.62
2022-12-15T04:22:06.092Z,95.66
2022-12-15T04:24:07.312Z,95.68
2022-12-15T04:26:08.888Z,95.7
2022-12-15T04:28:10.639Z,95.7
2022-12-15T04:30:12.414Z,95.68
2022-12-15T04:32:13.735Z,95.4
2022-12-15T04:34:14.979Z,95.39
2022-12-15T04:38:17.571Z,95.51
2022-12-15T04:40:19.542Z,95.57
2022-12-15T04:42:21.396Z,95.6
2022-12-15T04:44:22.723Z,95.61
2022-12-15T04:46:24.174Z,95.57
2022-12-15T04:48:25.707Z,95.56
2022-12-15T04:50:27.242Z,95.61
2022-12-15T04:52:28.516Z,95.68
2022-12-15T04:54:30.060Z,95.69
2022-12-15T04:56:31.592Z,95.69
2022-12-15T04:58:33.375Z,95.7
2022-12-15T05:00:35.118Z,95.6
2022-12-15T05:02:36.921Z,95.57
2022-12-15T05:04:37.989Z,95.62
2022-12-15T05:06:40.027Z,95.62
2022-12-15T05:08:42.063Z,95.59
2022-12-15T05:10:43.584Z,95.57
2022-12-15T05:12:45.047Z,95.56
2022-12-15T05:14:46.477Z,95.56
2022-12-15T05:16:47.683Z,95.6
2022-12-15T05:20:50.953Z,95.55
2022-12-15T05:22:52.635Z,95.56
2022-12-15T05:24:54.622Z,95.61
2022-12-15T05:26:56.693Z,95.65
2022-12-15T05:28:58.102Z,95.64
2022-12-15T05:30:59.539Z,95.67
2022-12-15T05:33:01.378Z,95.66
2022-12-15T05:35:03.107Z,95.56
2022-12-15T05:37:04.836Z,95.4
2022-12-15T05:39:06.002Z,95.4
2022-12-15T05:41:08.066Z,95.43
2022-12-15T05:43:09.817Z,95.49
2022-12-15T05:45:11.188Z,95.56
2022-12-15T05:47:12.868Z,95.57
2022-12-15T05:49:14.190Z,95.59
2022-12-15T05:51:16.241Z,95.62
2022-12-15T05:53:18.125Z,95.62
2022-12-15T05:55:19.686Z,95.64
2022-12-15T05:57:21.443Z,95.59
2022-12-15T05:59:23.175Z,95.62
2022-12-15T06:03:26.077Z,95.71
2022-12-15T06:05:27.602Z,95.69
2022-12-15T06:07:29.129Z,95.68
2022-12-15T06:09:30.741Z,95.71
2022-12-15T06:11:32.390Z,95.69
2022-12-15T06:13:34.557Z,95.69
2022-12-15T06:15:35.602Z,95.72
2022-12-15T06:17:37.281Z,95.73
2022-12-15T06:19:39.144Z,95.7
2022-12-15T06:21:40.755Z,95.7
2022-12-15T06:23:42.521Z,95.65
2022-12-15T06:25:44.275Z,95.6
2022-12-15T06:27:45.782Z,95.59
2022-12-15T06:29:47.150Z,95.58
2022-12-15T06:31:49.266Z,95.58
2022-12-15T06:33:52.462Z,95.68
2022-12-15T06:35:51.741Z,95.6
2022-12-15T06:37:52.917Z,95.61
2022-12-15T06:39:54.287Z,95.57
2022-12-15T06:41:55.618Z,95.7
2022-12-15T06:45:58.622Z,95.54
2022-12-15T06:52:04.578Z,95.37
2022-12-15T06:54:06.603Z,95.26
2022-12-15T07:06:16.283Z,95.41
2022-12-15T07:12:20.757Z,95.47
2022-12-15T07:24:30.523Z,95.61
2022-12-15T07:26:32.442Z,95.79
2022-12-15T07:30:38.811Z,96.04
2022-12-15T07:34:39.362Z,95.82
2022-12-15T08:05:02.063Z,95.35
2022-12-15T08:07:03.243Z,95.21
2022-12-15T08:11:07.194Z,94.91
2022-12-15T08:33:24.051Z,94.97
2022-12-15T08:37:27.921Z,94.04
2022-12-15T08:41:31.939Z,94.56
2022-12-15T08:47:37.309Z,94.61
2022-12-15T08:53:41.829Z,94.63
2022-12-15T09:16:09.149Z,94.15
2022-12-15T09:18:01.340Z,94.22
2022-12-15T09:20:03.225Z,93.7
2022-12-15T09:22:04.898Z,93.95
2022-12-15T09:30:11.134Z,93.84
2022-12-15T09:32:14.361Z,92.46
2022-12-15T09:48:26.234Z,88.03
2022-12-15T09:58:33.832Z,86.78
2022-12-15T10:06:38.828Z,86.96
2022-12-15T10:12:50.342Z,86.89
2022-12-15T10:18:47.627Z,86.3
2022-12-15T10:25:09.996Z,85.9
2022-12-15T10:35:42.909Z,85.76
2022-12-15T10:41:47.341Z,86.17
2022-12-15T11:06:06.544Z,85.07
2022-12-15T11:26:23.643Z,86.64
2022-12-15T11:36:31.694Z,88.32
2022-12-15T11:50:44.165Z,88.14
2022-12-15T11:52:46.291Z,87.59
2022-12-15T12:02:56.431Z,88.89
2022-12-15T12:15:07.519Z,89.5
2022-12-15T12:27:16.043Z,90.43
2022-12-15T12:45:31.494Z,90.61
2022-12-15T12:47:32.889Z,90.96
2022-12-15T12:55:39.624Z,90.93
2022-12-15T12:59:43.235Z,91.33
2022-12-15T13:03:45.647Z,91.73
2022-12-15T13:09:50.600Z,91.7
2022-12-15T13:19:58.472Z,91.96
2022-12-15T13:21:59.820Z,92.01
2022-12-15T13:24:01.731Z,92.12
2022-12-15T13:26:03.726Z,92.12
2022-12-15T13:28:04.938Z,92.09
2022-12-15T13:30:06.319Z,92.44
2022-12-15T13:32:08.058Z,92.37
2022-12-15T13:36:11.531Z,92.53
2022-12-15T13:38:12.830Z,92.25
2022-12-15T13:40:13.959Z,92.17
2022-12-15T13:42:33.020Z,92.17
2022-12-15T13:44:17.161Z,92.1
2022-12-15T13:46:18.491Z,92.08
2022-12-15T13:48:20.175Z,91.81
2022-12-15T13:50:21.452Z,91.91
2022-12-15T13:52:33.109Z,91.85
2022-12-15T13:54:24.376Z,91.93
2022-12-15T13:56:25.762Z,92.24
2022-12-15T13:58:27.432Z,92.04
2022-12-15T14:00:29.224Z,92.11
2022-12-15T14:02:30.523Z,91.9
2022-12-15T14:04:32.520Z,91.71
2022-12-15T14:06:34.478Z,91.76
2022-12-15T14:08:35.878Z,91.65
2022-12-15T14:10:37.785Z,91.53
2022-12-15T14:12:39.620Z,91.39
2022-12-15T14:14:41.519Z,91.54
2022-12-15T14:18:44.517Z,91.59
2022-12-15T14:20:46.241Z,91.59
2022-12-15T14:22:47.681Z,91.69
2022-12-15T14:24:49.192Z,91.67
2022-12-15T14:26:50.525Z,91.82
2022-12-15T14:28:51.727Z,91.89
2022-12-15T14:30:53.165Z,91.92
2022-12-15T14:32:54.494Z,92.1
2022-12-15T14:34:55.807Z,92.2
2022-12-15T14:36:57.760Z,92.2
2022-12-15T14:38:58.973Z,92.2
2022-12-15T14:41:00.500Z,92.35
2022-12-15T14:43:01.807Z,92.59
2022-12-15T14:45:03.734Z,92.58
2022-12-15T14:47:05.419Z,92.58
2022-12-15T14:51:08.748Z,92.62
2022-12-15T14:53:10.481Z,92.53
2022-12-15T14:55:12.355Z,92.55
2022-12-15T14:57:14.283Z,92.52
2022-12-15T15:01:18.032Z,92.91
2022-12-15T15:05:21.409Z,93.31
2022-12-15T15:07:23.020Z,93.05
2022-12-15T15:09:24.119Z,93.02
2022-12-15T15:11:26.185Z,93.12
2022-12-15T15:13:28.266Z,92.93
2022-12-15T15:15:30.188Z,93.08
2022-12-15T15:17:31.675Z,93.24
2022-12-15T15:19:36.126Z,93.27
2022-12-15T15:21:34.328Z,93.22
2022-12-15T15:23:36.070Z,93.54
2022-12-15T15:25:39.779Z,93.56
2022-12-15T15:27:39.094Z,93.55
2022-12-15T15:29:40.888Z,93.63
2022-12-15T15:33:44.518Z,94.02
2022-12-15T15:35:46.147Z,94.1
2022-12-15T15:37:48.087Z,94.24
2022-12-15T15:39:49.726Z,93.93
2022-12-15T15:43:52.520Z,93.69
2022-12-15T15:45:54.422Z,93.57
2022-12-15T15:47:55.928Z,93.42
2022-12-15T15:49:57.517Z,93.43
2022-12-15T15:51:59.420Z,93.33
2022-12-15T15:54:01.490Z,93.71
2022-12-15T15:56:02.859Z,93.78
2022-12-15T15:58:04.324Z,93.98
2022-12-15T16:00:05.886Z,94.2
2022-12-15T16:02:07.289Z,94.31
2022-12-15T16:04:09.244Z,94.23
2022-12-15T16:06:10.368Z,94.19
2022-12-15T16:08:11.633Z,94.38
2022-12-15T16:10:13.340Z,94.28
2022-12-15T16:12:15.028Z,94.3
2022-12-15T16:14:16.301Z,94.26
2022-12-15T16:16:17.636Z,94.2
2022-12-15T16:18:19.029Z,94.15
2022-12-15T16:22:21.550Z,94.05
2022-12-15T16:24:23.452Z,94.05
2022-12-15T16:26:25.099Z,94.09
2022-12-15T16:28:27.134Z,94.26
2022-12-15T16:32:29.544Z,94.2
2022-12-15T16:34:31.170Z,94.14
2022-12-15T16:36:32.544Z,94.23
2022-12-15T16:38:34.395Z,94.18
2022-12-15T16:42:37.123Z,94.16
2022-12-15T16:44:38.312Z,94.12
2022-12-15T16:46:39.933Z,94.16
2022-12-15T16:48:41.019Z,94.14
2022-12-15T16:50:42.656Z,94.16
2022-12-15T16:52:44.448Z,94.12
2022-12-15T16:54:45.807Z,94.06
2022-12-15T16:56:47.423Z,94.05
2022-12-15T16:58:52.830Z,94.02
2022-12-15T17:00:50.352Z,94.01
2022-12-15T17:02:52.032Z,94.04
2022-12-15T17:04:53.199Z,94.23
2022-12-15T17:06:54.558Z,94.4
2022-12-15T17:08:56.597Z,94.4
2022-12-15T17:10:58.237Z,94.24
2022-12-15T17:13:45.818Z,94.18
2022-12-15T17:15:45.731Z,94.38
2022-12-15T17:20:19.596Z,94.35
2022-12-15T17:21:50.383Z,94.32
2022-12-15T17:23:51.728Z,94.56
2022-12-15T17:26:19.836Z,94.67
2022-12-15T17:27:54.939Z,94.57
2022-12-15T17:29:56.598Z,94.48
2022-12-15T17:31:57.818Z,94.61
2022-12-15T17:33:59.317Z,94.77
2022-12-15T17:36:00.813Z,94.49
2022-12-15T17:38:02.378Z,94.55
2022-12-15T17:40:04.047Z,94.58
2022-12-15T17:42:05.484Z,94.56
2022-12-15T17:44:32.137Z,94.54
2022-12-15T17:46:08.797Z,94.61
2022-12-15T17:48:09.995Z,94.74
2022-12-15T17:52:13.318Z,95.2
2022-12-15T17:54:15.433Z,94.98
2022-12-15T17:56:16.708Z,94.95
2022-12-15T17:58:18.403Z,94.68
2022-12-15T18:02:21.515Z,94.19
2022-12-15T18:04:23.390Z,94
2022-12-15T18:06:24.450Z,93.76
2022-12-15T18:08:25.960Z,93.71
2022-12-15T18:10:27.689Z,93.66
2022-12-15T18:12:29.147Z,93.48
2022-12-15T18:14:30.305Z,93.44
2022-12-15T18:16:31.548Z,93.92
2022-12-15T18:18:33.258Z,94.02
2022-12-15T18:20:34.492Z,93.41
2022-12-15T18:22:35.958Z,93.23
2022-12-15T18:24:37.620Z,93.43
2022-12-15T18:26:38.875Z,93.62
2022-12-15T18:28:40.526Z,93.46
2022-12-15T18:30:42.340Z,93.48
2022-12-15T18:32:43.676Z,93.53
2022-12-15T18:34:45.345Z,93.34
2022-12-15T18:36:47.255Z,93.13
2022-12-15T18:38:49.130Z,92.91
2022-12-15T18:40:51.237Z,93.07
2022-12-15T18:44:54.130Z,93.13
2022-12-15T18:46:55.948Z,93.25
2022-12-15T18:48:57.423Z,93.3
2022-12-15T18:50:58.601Z,93.47
2022-12-15T18:52:59.929Z,93.69
2022-12-15T18:55:01.426Z,93.86
2022-12-15T18:57:02.687Z,93.99
2022-12-15T18:59:03.832Z,94.17
2022-12-15T19:01:05.546Z,94.26
2022-12-15T19:03:07.603Z,94.25
2022-12-15T19:05:08.768Z,94.34
2022-12-15T19:07:10.144Z,94.37
2022-12-15T19:09:11.708Z,94.46
2022-12-15T19:11:13.051Z,94.48
2022-12-15T19:13:14.666Z,94.5
2022-12-15T19:15:16.329Z,94.52
2022-12-15T19:17:17.888Z,94.69
2022-12-15T19:19:19.529Z,94.67
2022-12-15T19:21:21.128Z,94.68
2022-12-15T19:23:22.929Z,94.66
2022-12-15T19:27:25.659Z,94.3
2022-12-15T19:29:27.423Z,94.27
2022-12-15T19:31:29.020Z,94.29
2022-12-15T19:33:30.793Z,94.34
2022-12-15T19:35:31.722Z,94.41
2022-12-15T19:37:33.756Z,94.39
2022-12-15T19:39:35.738Z,94.48
2022-12-15T19:41:37.810Z,94.48
2022-12-15T19:43:39.752Z,94.4
2022-12-15T19:45:41.178Z,94.34
2022-12-15T19:47:42.824Z,94.4
2022-12-15T19:49:44.601Z,94.37
2022-12-15T19:51:45.787Z,94.17
2022-12-15T19:53:47.895Z,94.02
2022-12-15T19:55:49.508Z,93.97
2022-12-15T19:57:51.546Z,93.95
2022-12-15T19:59:52.880Z,93.75
2022-12-15T20:01:54.632Z,93.75
2022-12-15T20:03:56.172Z,93.51
2022-12-15T20:05:57.918Z,93.44
2022-12-15T20:10:01.368Z,93.27
2022-12-15T20:12:02.570Z,93.41
2022-12-15T20:14:04.522Z,93.47
2022-12-15T20:16:06.427Z,93.5
2022-12-15T20:18:07.812Z,93.69
2022-12-15T20:20:09.166Z,93.78
2022-12-15T20:22:10.449Z,93.77
2022-12-15T20:24:12.140Z,93.86
2022-12-15T20:26:13.948Z,93.89
2022-12-15T20:28:15.361Z,94.11
2022-12-15T20:30:16.476Z,94.19
2022-12-15T20:32:18.192Z,94.23
2022-12-15T20:34:19.766Z,94.12
2022-12-15T20:36:21.808Z,94.14
2022-12-15T20:38:23.556Z,94.2
2022-12-15T20:40:25.247Z,94.25
2022-12-15T20:42:26.771Z,94.28
2022-12-15T20:44:28.879Z,94.3
2022-12-15T20:46:30.987Z,94.32
2022-12-15T20:48:32.747Z,94.51
2022-12-15T20:52:35.653Z,94.74
2022-12-15T20:54:37.067Z,94.57
2022-12-15T20:56:38.561Z,94.77
2022-12-15T20:58:39.757Z,94.62
2022-12-15T21:00:41.740Z,94.49
2022-12-15T21:02:43.407Z,94.35
2022-12-15T21:04:44.698Z,94.28
2022-12-15T21:06:51.302Z,94.21
2022-12-15T21:08:48.010Z,94.14
2022-12-15T21:10:49.857Z,94.2
2022-12-15T21:12:51.273Z,94.23
2022-12-15T21:14:52.484Z,94.37
2022-12-15T21:16:53.901Z,94.28
2022-12-15T21:19:19.027Z,94.24
2022-12-15T21:20:56.991Z,94.01
2022-12-15T21:25:00.605Z,94.01
2022-12-15T21:27:02.315Z,94.02
2022-12-15T21:29:04.327Z,94.02
2022-12-15T21:31:06.450Z,94.01
2022-12-15T21:35:09.198Z,94.29
2022-12-15T21:37:10.453Z,94.3
2022-12-15T21:39:12.246Z,94.31
2022-12-15T21:41:13.401Z,94.29
2022-12-15T21:43:15.018Z,94.22
2022-12-15T21:45:16.296Z,94.16
2022-12-15T21:47:17.549Z,94.11
2022-12-15T21:49:19.294Z,94.13
2022-12-15T21:53:22.334Z,94.03
2022-12-15T21:55:24.182Z,94.03
2022-12-15T21:57:25.392Z,94.02
2022-12-15T21:59:27.043Z,94.04
2022-12-15T22:01:29.277Z,94
2022-12-15T22:03:30.761Z,93.97
2022-12-15T22:05:32.238Z,93.82
2022-12-15T22:07:34.128Z,93.53
2022-12-15T22:09:35.269Z,93.82
2022-12-15T22:11:36.530Z,94.25
2022-12-15T22:13:38.278Z,94.46
2022-12-15T22:15:39.810Z,94.45
2022-12-15T22:17:41.410Z,94.46
2022-12-15T22:19:43.239Z,94.43
2022-12-15T22:21:44.693Z,94.45
2022-12-15T22:23:46.172Z,94.5
2022-12-15T22:25:48.194Z,94.51
2022-12-15T22:27:50.141Z,94.7
2022-12-15T22:29:51.606Z,94.79
2022-12-15T22:31:53.100Z,94.81
2022-12-15T22:33:55.128Z,94.74
2022-12-15T22:35:56.818Z,94.54
2022-12-15T22:37:58.176Z,94.43
2022-12-15T22:39:59.486Z,94.41
2022-12-15T22:42:00.744Z,94.44
2022-12-15T22:44:01.858Z,94.45
2022-12-15T22:46:02.969Z,94.3
2022-12-15T22:50:06.045Z,94.13
2022-12-15T22:52:07.506Z,94.11
2022-12-15T22:56:10.645Z,93.78
2022-12-15T22:58:11.919Z,93.41
2022-12-15T23:00:13.485Z,93.07
2022-12-15T23:02:14.820Z,92.81
2022-12-15T23:04:16.570Z,92.79
2022-12-15T23:06:18.297Z,92.87
2022-12-15T23:08:19.724Z,92.89
2022-12-15T23:10:21.323Z,92.97
2022-12-15T23:12:22.664Z,92.97
2022-12-15T23:14:24.744Z,93.06
2022-12-15T23:16:26.206Z,93.16
2022-12-15T23:18:28.198Z,93.15
2022-12-15T23:20:29.585Z,93.09
2022-12-15T23:22:31.352Z,93.14
2022-12-15T23:24:32.776Z,93.15
2022-12-15T23:26:34.328Z,93.16
2022-12-15T23:28:36.385Z,93.2
2022-12-15T23:32:39.848Z,93.28
2022-12-15T23:34:41.435Z,93.08
2022-12-15T23:36:42.831Z,93.04
2022-12-15T23:38:44.481Z,92.92
2022-12-15T23:40:49.548Z,93.05
2022-12-15T23:42:47.994Z,92.96
2022-12-15T23:44:49.811Z,93.08
2022-12-15T23:46:51.117Z,93.24
2022-12-15T23:48:52.201Z,93.25
2022-12-15T23:50:53.333Z,93.5
2022-12-15T23:52:55.067Z,93.67
2022-12-15T23:54:56.227Z,93.77
2022-12-15T23:56:57.385Z,93.44
2022-12-15T23:58:58.562Z,93.09
2022-12-15T23:59:42.567Z,92.96
